sensor_id;sensor_type;location;lat;lon;timestamp;pressure;altitude;pressure_sealevel;temperature;humidity
56084;BME280;41958;52.416;13.428;2023-02-10T00:01:45;102598.53;;;0.08;75.79
56084;BME280;41958;52.416;13.428;2023-02-10T00:04:12;102605.94;;;0.08;75.91
56084;BME280;41958;52.416;13.428;2023-02-10T00:06:37;102596.75;;;0.14;75.29
56084;BME280;41958;52.416;13.428;2023-02-10T00:09:03;102594.84;;;0.14;75.78
56084;BME280;41958;52.416;13.428;2023-02-10T00:11:29;102597.81;;;0.13;75.41
56084;BME280;41958;52.416;13.428;2023-02-10T00:14:14;102594.97;;;0.20;75.50
56084;BME280;41958;52.416;13.428;2023-02-10T00:16:40;102597.50;;;0.21;75.56
56084;BME280;41958;52.416;13.428;2023-02-10T00:19:05;102601.22;;;0.27;75.59
56084;BME280;41958;52.416;13.428;2023-02-10T00:21:31;102588.41;;;0.21;75.94
56084;BME280;41958;52.416;13.428;2023-02-10T00:23:56;102595.72;;;0.27;75.73
56084;BME280;41958;52.416;13.428;2023-02-10T00:26:22;102599.56;;;0.38;75.61
56084;BME280;41958;52.416;13.428;2023-02-10T00:28:47;102602.31;;;0.38;75.92
56084;BME280;41958;52.416;13.428;2023-02-10T00:31:14;102601.72;;;0.36;76.03
56084;BME280;41958;52.416;13.428;2023-02-10T00:33:40;102605.69;;;0.40;75.69
56084;BME280;41958;52.416;13.428;2023-02-10T00:36:08;102609.88;;;0.42;76.03
56084;BME280;41958;52.416;13.428;2023-02-10T00:38:34;102601.63;;;0.42;76.52
56084;BME280;41958;52.416;13.428;2023-02-10T00:43:28;102601.97;;;0.46;76.10
56084;BME280;41958;52.416;13.428;2023-02-10T00:45:53;102605.44;;;0.41;76.50
56084;BME280;41958;52.416;13.428;2023-02-10T00:48:19;102610.22;;;0.46;76.81
56084;BME280;41958;52.416;13.428;2023-02-10T00:50:44;102609.88;;;0.42;76.84
56084;BME280;41958;52.416;13.428;2023-02-10T00:53:09;102613.38;;;0.49;77.03
56084;BME280;41958;52.416;13.428;2023-02-10T00:55:34;102607.63;;;0.51;77.48
56084;BME280;41958;52.416;13.428;2023-02-10T00:58:00;102615.28;;;0.49;77.39
56084;BME280;41958;52.416;13.428;2023-02-10T01:00:25;102614.81;;;0.52;77.86
56084;BME280;41958;52.416;13.428;2023-02-10T01:02:50;102616.94;;;0.50;77.54
56084;BME280;41958;52.416;13.428;2023-02-10T01:05:15;102616.59;;;0.58;77.76
56084;BME280;41958;52.416;13.428;2023-02-10T01:07:41;102608.34;;;0.58;78.30
56084;BME280;41958;52.416;13.428;2023-02-10T01:10:06;102619.59;;;0.57;78.17
56084;BME280;41958;52.416;13.428;2023-02-10T01:12:31;102606.94;;;0.56;78.43
56084;BME280;41958;52.416;13.428;2023-02-10T01:14:56;102622.00;;;0.65;78.34
56084;BME280;41958;52.416;13.428;2023-02-10T01:17:22;102616.75;;;0.63;78.89
56084;BME280;41958;52.416;13.428;2023-02-10T01:19:47;102623.81;;;0.71;78.79
56084;BME280;41958;52.416;13.428;2023-02-10T01:22:16;102625.50;;;0.72;78.56
56084;BME280;41958;52.416;13.428;2023-02-10T01:24:41;102628.94;;;0.67;78.64
56084;BME280;41958;52.416;13.428;2023-02-10T01:27:06;102633.63;;;0.67;79.20
56084;BME280;41958;52.416;13.428;2023-02-10T01:29:31;102625.59;;;0.65;79.72
56084;BME280;41958;52.416;13.428;2023-02-10T01:31:56;102624.25;;;0.56;79.08
56084;BME280;41958;52.416;13.428;2023-02-10T01:34:22;102626.63;;;0.41;80.46
56084;BME280;41958;52.416;13.428;2023-02-10T01:36:47;102629.69;;;0.32;80.73
56084;BME280;41958;52.416;13.428;2023-02-10T01:39:12;102622.88;;;0.23;80.84
56084;BME280;41958;52.416;13.428;2023-02-10T01:41:37;102625.56;;;0.11;81.30
56084;BME280;41958;52.416;13.428;2023-02-10T01:46:52;102628.47;;;-0.02;82.49
56084;BME280;41958;52.416;13.428;2023-02-10T01:49:19;102624.13;;;-0.10;82.86
56084;BME280;41958;52.416;13.428;2023-02-10T01:54:19;102619.41;;;-0.21;84.83
56084;BME280;41958;52.416;13.428;2023-02-10T01:56:46;102618.44;;;-0.27;85.04
56084;BME280;41958;52.416;13.428;2023-02-10T01:59:13;102613.63;;;-0.31;84.84
56084;BME280;41958;52.416;13.428;2023-02-10T02:01:39;102610.94;;;-0.38;85.28
56084;BME280;41958;52.416;13.428;2023-02-10T02:04:04;102609.06;;;-0.38;85.28
56084;BME280;41958;52.416;13.428;2023-02-10T02:06:30;102611.19;;;-0.40;85.91
56084;BME280;41958;52.416;13.428;2023-02-10T02:08:56;102619.06;;;-0.43;86.33
56084;BME280;41958;52.416;13.428;2023-02-10T02:11:54;102623.53;;;-0.49;85.91
56084;BME280;41958;52.416;13.428;2023-02-10T02:14:29;102630.19;;;-0.57;85.97
56084;BME280;41958;52.416;13.428;2023-02-10T02:17:13;102627.75;;;-0.65;85.96
56084;BME280;41958;52.416;13.428;2023-02-10T02:19:57;102636.88;;;-0.71;86.83
56084;BME280;41958;52.416;13.428;2023-02-10T02:23:07;102627.03;;;-0.79;86.76
56084;BME280;41958;52.416;13.428;2023-02-10T02:29:09;102637.06;;;-0.91;87.65
56084;BME280;41958;52.416;13.428;2023-02-10T02:34:49;102642.31;;;-1.08;87.69
56084;BME280;41958;52.416;13.428;2023-02-10T02:37:23;102636.88;;;-1.15;87.43
56084;BME280;41958;52.416;13.428;2023-02-10T02:39:52;102640.50;;;-1.21;87.63
56084;BME280;41958;52.416;13.428;2023-02-10T02:42:25;102637.81;;;-1.28;87.58
56084;BME280;41958;52.416;13.428;2023-02-10T02:45:00;102628.78;;;-1.35;88.02
56084;BME280;41958;52.416;13.428;2023-02-10T02:50:23;102642.97;;;-1.38;88.49
56084;BME280;41958;52.416;13.428;2023-02-10T02:53:26;102637.91;;;-1.41;89.37
56084;BME280;41958;52.416;13.428;2023-02-10T02:58:46;102639.13;;;-1.37;89.75
56084;BME280;41958;52.416;13.428;2023-02-10T03:01:23;102642.75;;;-1.37;89.47
56084;BME280;41958;52.416;13.428;2023-02-10T03:03:52;102643.19;;;-1.40;89.40
56084;BME280;41958;52.416;13.428;2023-02-10T03:06:18;102636.47;;;-1.44;89.19
56084;BME280;41958;52.416;13.428;2023-02-10T03:08:43;102642.38;;;-1.47;89.53
56084;BME280;41958;52.416;13.428;2023-02-10T03:11:08;102635.19;;;-1.48;90.78
56084;BME280;41958;52.416;13.428;2023-02-10T03:13:34;102646.34;;;-1.43;91.09
56084;BME280;41958;52.416;13.428;2023-02-10T03:15:59;102643.38;;;-1.41;91.35
56084;BME280;41958;52.416;13.428;2023-02-10T03:18:25;102652.25;;;-1.39;91.00
56084;BME280;41958;52.416;13.428;2023-02-10T03:20:50;102654.75;;;-1.38;91.82
56084;BME280;41958;52.416;13.428;2023-02-10T03:23:16;102652.66;;;-1.36;91.94
56084;BME280;41958;52.416;13.428;2023-02-10T03:25:44;102655.16;;;-1.34;92.22
56084;BME280;41958;52.416;13.428;2023-02-10T03:28:09;102661.03;;;-1.30;91.78
56084;BME280;41958;52.416;13.428;2023-02-10T03:30:36;102655.28;;;-1.22;92.09
56084;BME280;41958;52.416;13.428;2023-02-10T03:33:02;102653.16;;;-1.20;91.90
56084;BME280;41958;52.416;13.428;2023-02-10T03:35:27;102652.94;;;-1.19;92.04
56084;BME280;41958;52.416;13.428;2023-02-10T03:37:52;102653.16;;;-1.20;91.92
56084;BME280;41958;52.416;13.428;2023-02-10T03:40:17;102655.44;;;-1.17;92.30
56084;BME280;41958;52.416;13.428;2023-02-10T03:42:43;102653.16;;;-1.20;92.59
56084;BME280;41958;52.416;13.428;2023-02-10T03:45:08;102653.94;;;-1.13;92.14
56084;BME280;41958;52.416;13.428;2023-02-10T03:47:34;102665.31;;;-1.09;92.02
56084;BME280;41958;52.416;13.428;2023-02-10T03:49:59;102655.56;;;-1.05;91.93
56084;BME280;41958;52.416;13.428;2023-02-10T03:52:24;102651.53;;;-1.03;91.76
56084;BME280;41958;52.416;13.428;2023-02-10T03:54:49;102674.03;;;-0.94;92.61
56084;BME280;41958;52.416;13.428;2023-02-10T03:57:15;102669.19;;;-0.92;92.54
56084;BME280;41958;52.416;13.428;2023-02-10T03:59:40;102673.56;;;-0.84;92.14
56084;BME280;41958;52.416;13.428;2023-02-10T04:02:05;102668.84;;;-0.77;92.68
56084;BME280;41958;52.416;13.428;2023-02-10T04:04:31;102671.56;;;-0.77;92.09
56084;BME280;41958;52.416;13.428;2023-02-10T04:06:56;102673.22;;;-0.69;92.61
56084;BME280;41958;52.416;13.428;2023-02-10T04:09:21;102674.19;;;-0.63;92.08
56084;BME280;41958;52.416;13.428;2023-02-10T04:11:46;102672.22;;;-0.56;92.11
56084;BME280;41958;52.416;13.428;2023-02-10T04:14:12;102674.91;;;-0.49;92.12
56084;BME280;41958;52.416;13.428;2023-02-10T04:16:37;102663.22;;;-0.45;92.18
56084;BME280;41958;52.416;13.428;2023-02-10T04:19:02;102662.56;;;-0.40;91.99
56084;BME280;41958;52.416;13.428;2023-02-10T04:21:28;102659.72;;;-0.33;92.15
56084;BME280;41958;52.416;13.428;2023-02-10T04:23:53;102657.88;;;-0.21;92.34
56084;BME280;41958;52.416;13.428;2023-02-10T04:26:18;102664.59;;;-0.17;91.77
56084;BME280;41958;52.416;13.428;2023-02-10T04:28:43;102650.88;;;-0.17;92.27
56084;BME280;41958;52.416;13.428;2023-02-10T04:31:09;102671.84;;;-0.04;92.06
56084;BME280;41958;52.416;13.428;2023-02-10T04:33:35;102660.63;;;-0.03;91.70
56084;BME280;41958;52.416;13.428;2023-02-10T04:36:01;102660.41;;;-0.01;92.30
56084;BME280;41958;52.416;13.428;2023-02-10T04:38:28;102653.28;;;0.10;91.90
56084;BME280;41958;52.416;13.428;2023-02-10T04:40:54;102650.06;;;0.13;91.35
56084;BME280;41958;52.416;13.428;2023-02-10T04:43:19;102651.28;;;0.17;91.32
56084;BME280;41958;52.416;13.428;2023-02-10T04:45:44;102656.78;;;0.17;91.76
56084;BME280;41958;52.416;13.428;2023-02-10T04:48:09;102651.50;;;0.15;91.78
56084;BME280;41958;52.416;13.428;2023-02-10T04:50:38;102647.81;;;0.22;92.06
56084;BME280;41958;52.416;13.428;2023-02-10T04:53:03;102664.84;;;0.30;92.38
56084;BME280;41958;52.416;13.428;2023-02-10T04:55:28;102667.59;;;0.30;92.01
56084;BME280;41958;52.416;13.428;2023-02-10T04:57:54;102679.19;;;0.32;92.22
56084;BME280;41958;52.416;13.428;2023-02-10T05:00:19;102675.28;;;0.40;92.20
56084;BME280;41958;52.416;13.428;2023-02-10T05:02:45;102681.63;;;0.41;92.65
56084;BME280;41958;52.416;13.428;2023-02-10T05:05:11;102683.19;;;0.48;92.25
56084;BME280;41958;52.416;13.428;2023-02-10T05:07:36;102663.44;;;0.40;92.00
56084;BME280;41958;52.416;13.428;2023-02-10T05:10:02;102660.84;;;0.45;92.81
56084;BME280;41958;52.416;13.428;2023-02-10T05:12:27;102670.91;;;0.51;92.83
56084;BME280;41958;52.416;13.428;2023-02-10T05:14:53;102673.06;;;0.49;92.79
56084;BME280;41958;52.416;13.428;2023-02-10T05:17:18;102671.88;;;0.57;92.60
56084;BME280;41958;52.416;13.428;2023-02-10T05:19:43;102691.50;;;0.60;92.93
56084;BME280;41958;52.416;13.428;2023-02-10T05:22:08;102683.84;;;0.62;92.43
56084;BME280;41958;52.416;13.428;2023-02-10T05:24:34;102683.00;;;0.62;92.49
56084;BME280;41958;52.416;13.428;2023-02-10T05:26:59;102686.72;;;0.56;92.53
56084;BME280;41958;52.416;13.428;2023-02-10T05:29:24;102673.94;;;0.61;92.67
56084;BME280;41958;52.416;13.428;2023-02-10T05:31:49;102683.09;;;0.55;93.15
56084;BME280;41958;52.416;13.428;2023-02-10T05:34:15;102676.06;;;0.59;92.78
56084;BME280;41958;52.416;13.428;2023-02-10T05:36:40;102681.41;;;0.54;92.80
56084;BME280;41958;52.416;13.428;2023-02-10T05:39:08;102670.69;;;0.64;92.92
56084;BME280;41958;52.416;13.428;2023-02-10T05:41:49;102686.72;;;0.56;92.90
56084;BME280;41958;52.416;13.428;2023-02-10T05:44:14;102689.81;;;0.59;93.05
56084;BME280;41958;52.416;13.428;2023-02-10T05:46:39;102687.53;;;0.56;93.47
56084;BME280;41958;52.416;13.428;2023-02-10T05:49:05;102697.00;;;0.60;92.71
56084;BME280;41958;52.416;13.428;2023-02-10T05:51:30;102683.84;;;0.62;93.13
56084;BME280;41958;52.416;13.428;2023-02-10T05:53:56;102691.78;;;0.71;92.59
56084;BME280;41958;52.416;13.428;2023-02-10T05:56:21;102688.19;;;0.70;92.74
56084;BME280;41958;52.416;13.428;2023-02-10T05:58:46;102677.16;;;0.70;92.78
56084;BME280;41958;52.416;13.428;2023-02-10T06:01:11;102701.59;;;0.66;92.65
56084;BME280;41958;52.416;13.428;2023-02-10T06:03:37;102697.50;;;0.69;92.75
56084;BME280;41958;52.416;13.428;2023-02-10T06:06:02;102688.66;;;0.67;92.53
56084;BME280;41958;52.416;13.428;2023-02-10T06:08:28;102688.03;;;0.65;93.34
56084;BME280;41958;52.416;13.428;2023-02-10T06:10:53;102700.13;;;0.64;92.75
56084;BME280;41958;52.416;13.428;2023-02-10T06:13:18;102712.53;;;0.55;93.72
56084;BME280;41958;52.416;13.428;2023-02-10T06:15:44;102710.22;;;0.52;93.28
56084;BME280;41958;52.416;13.428;2023-02-10T06:18:09;102709.16;;;0.41;94.02
56084;BME280;41958;52.416;13.428;2023-02-10T06:20:34;102705.38;;;0.35;94.56
56084;BME280;41958;52.416;13.428;2023-02-10T06:23:00;102704.19;;;0.31;94.76
56084;BME280;41958;52.416;13.428;2023-02-10T06:25:25;102702.22;;;0.20;94.60
56084;BME280;41958;52.416;13.428;2023-02-10T06:27:50;102716.56;;;0.22;95.25
56084;BME280;41958;52.416;13.428;2023-02-10T06:30:16;102724.91;;;0.15;95.64
56084;BME280;41958;52.416;13.428;2023-02-10T06:32:41;102724.44;;;0.18;95.96
56084;BME280;41958;52.416;13.428;2023-02-10T06:35:06;102724.91;;;0.15;95.73
56084;BME280;41958;52.416;13.428;2023-02-10T06:37:32;102728.56;;;0.09;96.18
56084;BME280;41958;52.416;13.428;2023-02-10T06:40:07;102741.94;;;0.05;96.49
56084;BME280;41958;52.416;13.428;2023-02-10T06:42:32;102733.91;;;0.04;96.65
56084;BME280;41958;52.416;13.428;2023-02-10T06:44:58;102732.22;;;0.03;97.00
56084;BME280;41958;52.416;13.428;2023-02-10T06:47:23;102722.16;;;-0.04;96.95
56084;BME280;41958;52.416;13.428;2023-02-10T06:49:48;102725.38;;;-0.07;97.19
56084;BME280;41958;52.416;13.428;2023-02-10T06:52:14;102731.31;;;-0.10;97.14
56084;BME280;41958;52.416;13.428;2023-02-10T06:54:39;102727.50;;;-0.09;97.62
56084;BME280;41958;52.416;13.428;2023-02-10T06:57:04;102742.31;;;-0.10;97.60
56084;BME280;41958;52.416;13.428;2023-02-10T06:59:32;102739.56;;;-0.10;97.93
56084;BME280;41958;52.416;13.428;2023-02-10T07:01:57;102734.28;;;-0.11;98.13
56084;BME280;41958;52.416;13.428;2023-02-10T07:04:27;102750.72;;;-0.05;98.61
56084;BME280;41958;52.416;13.428;2023-02-10T07:06:52;102745.84;;;-0.03;98.43
56084;BME280;41958;52.416;13.428;2023-02-10T07:09:17;102748.34;;;-0.01;98.24
56084;BME280;41958;52.416;13.428;2023-02-10T07:11:42;102758.06;;;0.02;98.07
56084;BME280;41958;52.416;13.428;2023-02-10T07:14:08;102752.09;;;0.05;98.21
56084;BME280;41958;52.416;13.428;2023-02-10T07:16:33;102736.81;;;0.09;98.13
56084;BME280;41958;52.416;13.428;2023-02-10T07:18:58;102752.41;;;0.15;98.05
56084;BME280;41958;52.416;13.428;2023-02-10T07:21:24;102753.53;;;0.26;97.78
56084;BME280;41958;52.416;13.428;2023-02-10T07:23:49;102743.38;;;0.26;97.88
56084;BME280;41958;52.416;13.428;2023-02-10T07:26:14;102758.25;;;0.37;97.76
56084;BME280;41958;52.416;13.428;2023-02-10T07:28:43;102762.22;;;0.41;97.41
56084;BME280;41958;52.416;13.428;2023-02-10T07:31:08;102761.69;;;0.51;97.31
56084;BME280;41958;52.416;13.428;2023-02-10T07:33:33;102767.34;;;0.56;97.16
56084;BME280;41958;52.416;13.428;2023-02-10T07:36:00;102769.25;;;0.56;96.67
56084;BME280;41958;52.416;13.428;2023-02-10T07:38:27;102768.06;;;0.63;96.39
56084;BME280;41958;52.416;13.428;2023-02-10T07:40:52;102778.41;;;0.68;96.47
56084;BME280;41958;52.416;13.428;2023-02-10T07:43:17;102773.00;;;0.73;96.57
56084;BME280;41958;52.416;13.428;2023-02-10T07:45:43;102776.97;;;0.77;96.55
56084;BME280;41958;52.416;13.428;2023-02-10T07:48:08;102777.66;;;0.91;95.80
56084;BME280;41958;52.416;13.428;2023-02-10T07:50:33;102767.84;;;0.95;95.52
56084;BME280;41958;52.416;13.428;2023-02-10T07:52:58;102776.34;;;1.06;95.25
56084;BME280;41958;52.416;13.428;2023-02-10T07:55:24;102779.00;;;1.12;94.46
56084;BME280;41958;52.416;13.428;2023-02-10T07:57:51;102776.50;;;1.11;95.10
56084;BME280;41958;52.416;13.428;2023-02-10T08:00:17;102782.97;;;1.16;94.37
56084;BME280;41958;52.416;13.428;2023-02-10T08:02:43;102781.66;;;1.19;94.68
56084;BME280;41958;52.416;13.428;2023-02-10T08:05:08;102771.16;;;1.28;94.24
56084;BME280;41958;52.416;13.428;2023-02-10T08:07:33;102789.97;;;1.31;94.14
56084;BME280;41958;52.416;13.428;2023-02-10T08:09:58;102787.19;;;1.31;94.14
56084;BME280;41958;52.416;13.428;2023-02-10T08:12:23;102785.53;;;1.42;94.61
56084;BME280;41958;52.416;13.428;2023-02-10T08:14:49;102795.25;;;1.44;94.26
56084;BME280;41958;52.416;13.428;2023-02-10T08:17:14;102799.94;;;1.56;93.75
56084;BME280;41958;52.416;13.428;2023-02-10T08:19:39;102795.03;;;1.58;94.10
56084;BME280;41958;52.416;13.428;2023-02-10T08:22:05;102801.88;;;1.67;93.23
56084;BME280;41958;52.416;13.428;2023-02-10T08:24:30;102795.63;;;1.72;93.18
56084;BME280;41958;52.416;13.428;2023-02-10T08:26:56;102806.78;;;1.77;93.39
56084;BME280;41958;52.416;13.428;2023-02-10T08:29:21;102809.06;;;1.92;92.76
56084;BME280;41958;52.416;13.428;2023-02-10T08:31:50;102818.91;;;1.88;92.67
56084;BME280;41958;52.416;13.428;2023-02-10T08:34:18;102822.00;;;2.03;93.05
56084;BME280;41958;52.416;13.428;2023-02-10T08:36:44;102817.19;;;2.10;92.09
56084;BME280;41958;52.416;13.428;2023-02-10T08:39:10;102824.88;;;2.08;91.93
56084;BME280;41958;52.416;13.428;2023-02-10T08:41:37;102833.16;;;2.08;91.38
56084;BME280;41958;52.416;13.428;2023-02-10T08:44:02;102830.78;;;2.12;91.78
56084;BME280;41958;52.416;13.428;2023-02-10T08:46:28;102819.81;;;2.17;91.61
56084;BME280;41958;52.416;13.428;2023-02-10T08:48:53;102821.13;;;2.26;92.13
56084;BME280;41958;52.416;13.428;2023-02-10T08:51:18;102823.19;;;2.31;91.40
56084;BME280;41958;52.416;13.428;2023-02-10T08:53:44;102826.66;;;2.38;91.01
56084;BME280;41958;52.416;13.428;2023-02-10T08:56:11;102821.38;;;2.36;90.96
56084;BME280;41958;52.416;13.428;2023-02-10T08:58:37;102822.78;;;2.51;91.35
56084;BME280;41958;52.416;13.428;2023-02-10T09:01:14;102822.06;;;2.56;91.05
56084;BME280;41958;52.416;13.428;2023-02-10T09:03:41;102826.25;;;2.58;90.83
56084;BME280;41958;52.416;13.428;2023-02-10T09:06:22;102821.66;;;2.64;90.75
56084;BME280;41958;52.416;13.428;2023-02-10T09:08:48;102822.34;;;2.71;90.53
56084;BME280;41958;52.416;13.428;2023-02-10T09:11:15;102822.59;;;2.98;90.54
56084;BME280;41958;52.416;13.428;2023-02-10T09:13:41;102826.09;;;3.23;88.91
56084;BME280;41958;52.416;13.428;2023-02-10T09:16:06;102821.94;;;3.37;88.45
56084;BME280;41958;52.416;13.428;2023-02-10T09:18:31;102829.91;;;3.67;87.31
56084;BME280;41958;52.416;13.428;2023-02-10T09:20:58;102831.34;;;3.87;86.34
56084;BME280;41958;52.416;13.428;2023-02-10T09:23:23;102833.16;;;3.98;85.89
56084;BME280;41958;52.416;13.428;2023-02-10T09:25:55;102834.00;;;3.99;85.53
56084;BME280;41958;52.416;13.428;2023-02-10T09:28:21;102836.75;;;4.16;85.38
56084;BME280;41958;52.416;13.428;2023-02-10T09:30:46;102836.53;;;4.00;85.30
56084;BME280;41958;52.416;13.428;2023-02-10T09:33:12;102835.94;;;3.98;85.87
56084;BME280;41958;52.416;13.428;2023-02-10T09:35:37;102841.19;;;4.00;85.88
56084;BME280;41958;52.416;13.428;2023-02-10T09:38:03;102839.94;;;4.08;85.94
56084;BME280;41958;52.416;13.428;2023-02-10T09:40:32;102829.81;;;3.96;86.80
56084;BME280;41958;52.416;13.428;2023-02-10T09:45:33;102830.38;;;4.15;85.71
56084;BME280;41958;52.416;13.428;2023-02-10T09:48:32;102836.31;;;4.24;85.68
56084;BME280;41958;52.416;13.428;2023-02-10T09:53:30;102839.22;;;4.34;85.40
56084;BME280;41958;52.416;13.428;2023-02-10T09:55:57;102844.16;;;4.32;85.72
56084;BME280;41958;52.416;13.428;2023-02-10T09:58:27;102848.94;;;4.37;85.43
56084;BME280;41958;52.416;13.428;2023-02-10T10:00:59;102858.72;;;4.45;85.57
56084;BME280;41958;52.416;13.428;2023-02-10T10:03:33;102849.25;;;4.41;85.01
56084;BME280;41958;52.416;13.428;2023-02-10T10:06:12;102856.22;;;4.43;85.35
56084;BME280;41958;52.416;13.428;2023-02-10T10:14:33;102866.63;;;4.75;84.85
56084;BME280;41958;52.416;13.428;2023-02-10T10:17:19;102853.91;;;4.57;84.70
56084;BME280;41958;52.416;13.428;2023-02-10T10:22:52;102861.19;;;4.63;85.13
56084;BME280;41958;52.416;13.428;2023-02-10T10:28:24;102855.84;;;4.79;84.20
56084;BME280;41958;52.416;13.428;2023-02-10T10:31:05;102867.38;;;4.93;83.39
56084;BME280;41958;52.416;13.428;2023-02-10T10:33:39;102856.31;;;4.93;82.70
56084;BME280;41958;52.416;13.428;2023-02-10T10:36:13;102871.75;;;5.11;83.28
56084;BME280;41958;52.416;13.428;2023-02-10T10:38:43;102866.06;;;5.00;82.78
56084;BME280;41958;52.416;13.428;2023-02-10T10:41:12;102863.28;;;5.00;82.58
56084;BME280;41958;52.416;13.428;2023-02-10T10:43:45;102865.63;;;4.86;83.19
56084;BME280;41958;52.416;13.428;2023-02-10T10:46:29;102872.41;;;4.96;83.87
56084;BME280;41958;52.416;13.428;2023-02-10T10:48:58;102866.91;;;5.01;83.07
56084;BME280;41958;52.416;13.428;2023-02-10T10:51:23;102872.88;;;5.15;82.90
56084;BME280;41958;52.416;13.428;2023-02-10T10:53:54;102847.72;;;4.94;83.05
56084;BME280;41958;52.416;13.428;2023-02-10T10:58:57;102864.63;;;4.93;83.47
56084;BME280;41958;52.416;13.428;2023-02-10T11:01:35;102858.00;;;4.99;83.70
56084;BME280;41958;52.416;13.428;2023-02-10T11:04:11;102856.53;;;5.13;83.11
56084;BME280;41958;52.416;13.428;2023-02-10T11:06:39;102847.47;;;5.23;82.43
56084;BME280;41958;52.416;13.428;2023-02-10T11:09:28;102850.97;;;5.13;82.92
56084;BME280;41958;52.416;13.428;2023-02-10T11:12:13;102849.41;;;5.22;82.87
56084;BME280;41958;52.416;13.428;2023-02-10T11:14:41;102850.38;;;5.11;82.98
56084;BME280;41958;52.416;13.428;2023-02-10T11:17:20;102833.50;;;5.13;83.16
56084;BME280;41958;52.416;13.428;2023-02-10T11:19:59;102843.81;;;5.17;83.08
56084;BME280;41958;52.416;13.428;2023-02-10T11:22:25;102827.31;;;5.28;83.10
56084;BME280;41958;52.416;13.428;2023-02-10T11:24:55;102830.91;;;5.28;82.71
56084;BME280;41958;52.416;13.428;2023-02-10T11:27:22;102835.84;;;5.26;82.57
56084;BME280;41958;52.416;13.428;2023-02-10T11:29:56;102832.72;;;5.17;82.97
56084;BME280;41958;52.416;13.428;2023-02-10T11:32:25;102824.38;;;5.45;82.94
56084;BME280;41958;52.416;13.428;2023-02-10T11:34:55;102825.22;;;5.45;82.17
56084;BME280;41958;52.416;13.428;2023-02-10T11:37:27;102826.34;;;5.49;82.34
56084;BME280;41958;52.416;13.428;2023-02-10T11:39:55;102823.09;;;5.52;82.57
56084;BME280;41958;52.416;13.428;2023-02-10T11:42:25;102812.88;;;5.58;81.72
56084;BME280;41958;52.416;13.428;2023-02-10T11:47:36;102822.53;;;5.55;81.42
56084;BME280;41958;52.416;13.428;2023-02-10T11:50:03;102821.94;;;5.48;81.75
56084;BME280;41958;52.416;13.428;2023-02-10T11:52:29;102818.84;;;5.45;81.88
56084;BME280;41958;52.416;13.428;2023-02-10T11:54:56;102815.59;;;5.53;81.63
56084;BME280;41958;52.416;13.428;2023-02-10T11:57:49;102821.41;;;5.51;81.89
56084;BME280;41958;52.416;13.428;2023-02-10T12:00:50;102809.44;;;5.46;81.93
56084;BME280;41958;52.416;13.428;2023-02-10T12:06:00;102811.28;;;5.67;81.30
56084;BME280;41958;52.416;13.428;2023-02-10T12:08:39;102817.09;;;5.66;81.06
56084;BME280;41958;52.416;13.428;2023-02-10T12:13:48;102809.28;;;5.63;81.02
56084;BME280;41958;52.416;13.428;2023-02-10T12:19:28;102811.88;;;5.74;80.54
56084;BME280;41958;52.416;13.428;2023-02-10T12:22:08;102792.38;;;5.64;80.62
56084;BME280;41958;52.416;13.428;2023-02-10T12:27:44;102807.09;;;5.65;80.21
56084;BME280;41958;52.416;13.428;2023-02-10T12:35:51;102795.50;;;5.73;80.27
56084;BME280;41958;52.416;13.428;2023-02-10T12:41:18;102801.78;;;5.96;80.14
56084;BME280;41958;52.416;13.428;2023-02-10T12:44:04;102807.16;;;6.13;79.87
56084;BME280;41958;52.416;13.428;2023-02-10T12:47:12;102799.69;;;6.13;78.92
56084;BME280;41958;52.416;13.428;2023-02-10T12:50:07;102796.38;;;6.16;79.09
56084;BME280;41958;52.416;13.428;2023-02-10T12:52:58;102797.22;;;6.22;79.22
56084;BME280;41958;52.416;13.428;2023-02-10T12:55:33;102785.06;;;6.33;78.30
56084;BME280;41958;52.416;13.428;2023-02-10T12:58:14;102781.56;;;6.58;76.83
56084;BME280;41958;52.416;13.428;2023-02-10T13:00:46;102774.63;;;6.61;77.24
56084;BME280;41958;52.416;13.428;2023-02-10T13:03:28;102782.97;;;6.66;76.45
56084;BME280;41958;52.416;13.428;2023-02-10T13:05:58;102790.72;;;6.59;76.44
56084;BME280;41958;52.416;13.428;2023-02-10T13:08:37;102791.59;;;6.65;76.68
56084;BME280;41958;52.416;13.428;2023-02-10T13:14:20;102780.72;;;6.63;76.87
56084;BME280;41958;52.416;13.428;2023-02-10T13:16:53;102779.28;;;6.45;76.97
56084;BME280;41958;52.416;13.428;2023-02-10T13:22:48;102762.22;;;6.21;77.83
56084;BME280;41958;52.416;13.428;2023-02-10T13:25:18;102755.84;;;6.20;77.83
56084;BME280;41958;52.416;13.428;2023-02-10T13:27:54;102767.00;;;6.31;78.01
56084;BME280;41958;52.416;13.428;2023-02-10T13:33:11;102770.00;;;6.19;79.05
56084;BME280;41958;52.416;13.428;2023-02-10T13:35:41;102773.84;;;6.13;79.17
56084;BME280;41958;52.416;13.428;2023-02-10T13:38:09;102773.06;;;6.22;78.82
56084;BME280;41958;52.416;13.428;2023-02-10T13:40:52;102777.47;;;6.18;79.14
56084;BME280;41958;52.416;13.428;2023-02-10T13:43:26;102774.94;;;6.12;79.05
56084;BME280;41958;52.416;13.428;2023-02-10T13:45:53;102774.66;;;6.08;79.57
56084;BME280;41958;52.416;13.428;2023-02-10T13:48:25;102783.50;;;6.05;80.23
56084;BME280;41958;52.416;13.428;2023-02-10T13:50:57;102784.41;;;6.11;79.63
56084;BME280;41958;52.416;13.428;2023-02-10T14:01:31;102780.81;;;6.15;79.36
56084;BME280;41958;52.416;13.428;2023-02-10T14:03:56;102780.78;;;6.10;79.46
56084;BME280;41958;52.416;13.428;2023-02-10T14:06:35;102763.25;;;6.04;79.10
56084;BME280;41958;52.416;13.428;2023-02-10T14:09:17;102774.97;;;6.17;78.68
56084;BME280;41958;52.416;13.428;2023-02-10T14:11:44;102774.19;;;6.21;78.52
56084;BME280;41958;52.416;13.428;2023-02-10T14:14:31;102767.72;;;6.05;78.62
56084;BME280;41958;52.416;13.428;2023-02-10T14:19:30;102754.72;;;6.16;78.96